createdAt,value
2019-05-19T01:52:21.526Z,14.71
2019-05-19T01:52:48.302Z,14.62
2019-05-19T01:53:48.277Z,14.68
2019-05-19T01:54:48.255Z,14.70
2019-05-19T01:55:48.248Z,14.67
2019-05-19T01:56:48.223Z,14.61
2019-05-19T01:57:48.200Z,14.73
2019-05-19T01:58:48.192Z,14.62
2019-05-19T01:59:48.167Z,14.61
2019-05-19T02:00:48.147Z,14.62
2019-05-19T02:01:48.131Z,14.51
2019-05-19T02:02:48.143Z,14.45
2019-05-19T02:03:48.089Z,14.51
2019-05-19T02:04:48.087Z,14.51
2019-05-19T02:05:48.063Z,14.45
2019-05-19T02:06:48.025Z,14.51
2019-05-19T02:07:48.011Z,14.38
2019-05-19T02:08:47.988Z,14.48
2019-05-19T02:09:47.995Z,14.38
2019-05-19T02:10:47.950Z,14.45
2019-05-19T02:11:47.954Z,14.44
2019-05-19T02:12:47.927Z,14.44
2019-05-19T02:13:47.894Z,14.44
2019-05-19T02:14:47.873Z,14.49
2019-05-19T02:15:47.853Z,14.43
2019-05-19T02:16:47.832Z,14.44
2019-05-19T02:17:47.814Z,14.41
2019-05-19T02:18:47.797Z,14.44
2019-05-19T02:19:47.775Z,14.44
2019-05-19T02:20:47.754Z,14.43
2019-05-19T02:21:47.735Z,14.43
2019-05-19T02:22:47.717Z,14.41
2019-05-19T02:23:47.709Z,14.34
2019-05-19T02:24:47.676Z,14.31
2019-05-19T02:25:47.659Z,14.30
2019-05-19T02:26:47.649Z,14.34
2019-05-19T02:27:47.626Z,14.28
2019-05-19T02:28:47.600Z,14.20
2019-05-19T02:29:47.586Z,14.25
2019-05-19T02:30:47.564Z,14.18
2019-05-19T02:31:47.546Z,14.16
2019-05-19T02:32:47.523Z,14.18
2019-05-19T02:33:47.504Z,14.19
2019-05-19T02:34:47.493Z,14.18
2019-05-19T02:35:47.465Z,14.05
2019-05-19T02:36:47.452Z,14.13
2019-05-19T02:37:47.434Z,14.08
2019-05-19T02:38:47.406Z,14.03
2019-05-19T02:39:47.396Z,14.05
2019-05-19T02:40:47.371Z,14.08
2019-05-19T02:41:47.349Z,14.01
2019-05-19T02:42:47.328Z,14.05
2019-05-19T02:43:47.317Z,14.03
2019-05-19T02:44:47.289Z,14.04
2019-05-19T02:45:47.270Z,14.05
2019-05-19T02:46:47.250Z,14.00
2019-05-19T02:47:47.231Z,14.08
2019-05-19T02:48:47.212Z,14.03
2019-05-19T02:49:47.193Z,14.03
2019-05-19T02:50:52.122Z,14.01
2019-05-19T02:51:47.155Z,13.94
2019-05-19T02:52:47.143Z,14.01
2019-05-19T02:53:47.112Z,14.08
2019-05-19T02:54:47.097Z,13.95
2019-05-19T02:55:47.081Z,14.04
2019-05-19T02:56:47.064Z,13.91
2019-05-19T02:57:47.035Z,14.01
2019-05-19T02:58:47.018Z,13.91
2019-05-19T02:59:47.006Z,13.91
2019-05-19T03:00:46.989Z,13.85
2019-05-19T03:01:46.955Z,13.89
2019-05-19T03:02:46.937Z,13.85
2019-05-19T03:06:14.656Z,13.83
2019-05-19T03:07:14.640Z,13.87
2019-05-19T03:08:14.612Z,13.91
2019-05-19T03:09:14.593Z,13.85
2019-05-19T03:10:14.575Z,13.91
2019-05-19T03:11:14.552Z,13.91
2019-05-19T03:12:47.742Z,13.86
2019-05-19T03:13:14.513Z,13.85
2019-05-19T03:14:14.493Z,13.97
2019-05-19T03:15:14.481Z,14.00
2019-05-19T03:16:14.460Z,13.97
2019-05-19T03:17:14.434Z,13.91
2019-05-19T03:20:00.058Z,13.87
2019-05-19T03:21:10.266Z,14.04
2019-05-19T03:21:59.974Z,14.00
2019-05-19T03:22:59.955Z,14.01
2019-05-19T03:23:59.932Z,13.94
2019-05-19T03:24:59.911Z,13.98
2019-05-19T03:26:33.160Z,13.98
2019-05-19T03:26:59.881Z,14.03
2019-05-19T03:27:59.856Z,13.98
2019-05-19T03:28:59.840Z,14.00
2019-05-19T03:29:59.813Z,13.93
2019-05-19T03:30:59.796Z,13.93
2019-05-19T03:34:18.537Z,13.87
2019-05-19T03:34:45.306Z,13.93
2019-05-19T03:35:45.284Z,13.86
2019-05-19T03:36:45.263Z,13.91
2019-05-19T03:37:45.245Z,13.79
2019-05-19T03:39:18.449Z,13.83
2019-05-19T03:39:45.217Z,13.78
2019-05-19T03:40:45.182Z,13.79
2019-05-19T03:41:45.166Z,13.80
2019-05-19T03:42:45.144Z,13.80
2019-05-19T03:46:03.781Z,13.70
2019-05-19T03:46:30.568Z,13.75
2019-05-19T03:47:30.548Z,13.76
2019-05-19T03:48:30.513Z,13.68
2019-05-19T03:49:30.502Z,13.76
2019-05-19T03:51:03.684Z,13.75
2019-05-19T03:51:31.901Z,13.71
2019-05-19T03:52:30.440Z,13.79
2019-05-19T03:53:30.420Z,13.79
2019-05-19T03:54:30.398Z,13.76
2019-05-19T03:57:48.881Z,13.83
2019-05-19T03:58:15.651Z,13.83
2019-05-19T03:59:15.695Z,13.82
2019-05-19T04:00:15.628Z,13.87
2019-05-19T04:01:15.592Z,13.93
2019-05-19T04:02:15.572Z,13.87
2019-05-19T04:03:15.553Z,13.86
2019-05-19T04:04:15.543Z,13.86
2019-05-19T04:05:15.526Z,13.86
2019-05-19T04:06:15.493Z,13.91
2019-05-19T04:09:34.200Z,13.95
2019-05-19T04:10:01.004Z,13.97
2019-05-19T04:11:00.930Z,14.01
2019-05-19T04:12:00.911Z,14.08
2019-05-19T04:13:00.891Z,14.03
2019-05-19T04:14:00.873Z,14.03
2019-05-19T04:15:00.870Z,14.05
2019-05-19T04:16:00.842Z,14.13
2019-05-19T04:17:00.817Z,14.15
2019-05-19T04:18:00.794Z,14.16
2019-05-19T04:21:19.434Z,14.22
2019-05-19T04:21:49.212Z,14.23
2019-05-19T04:23:19.394Z,14.20
2019-05-19T04:23:46.170Z,14.18
2019-05-19T04:24:46.142Z,14.23
2019-05-19T04:25:46.124Z,14.22
2019-05-19T04:26:46.104Z,14.19
2019-05-19T04:27:46.087Z,14.23
2019-05-19T04:28:46.066Z,14.23
2019-05-19T04:32:04.661Z,14.25
2019-05-19T04:32:31.430Z,14.26
2019-05-19T04:34:04.622Z,14.28
2019-05-19T04:34:31.386Z,14.41
2019-05-19T04:35:31.366Z,14.36
2019-05-19T04:36:31.346Z,14.44
2019-05-19T04:37:31.336Z,14.37
2019-05-19T04:38:31.355Z,14.44
2019-05-19T04:39:31.344Z,14.40
2019-05-19T04:42:49.774Z,14.43
2019-05-19T04:43:16.543Z,14.48
2019-05-19T04:44:49.736Z,14.52
2019-05-19T04:45:16.505Z,14.48
2019-05-19T04:46:16.522Z,14.55
2019-05-19T04:47:16.476Z,14.49
2019-05-19T04:48:16.473Z,14.51
2019-05-19T04:49:16.427Z,14.59
2019-05-19T04:50:16.408Z,14.68
2019-05-19T04:53:34.944Z,14.81
2019-05-19T04:54:01.715Z,14.89
2019-05-19T04:55:34.912Z,14.89
2019-05-19T04:58:20.042Z,15.00
2019-05-19T04:58:46.806Z,14.99
2019-05-19T05:00:19.994Z,15.00
2019-05-19T05:03:05.124Z,14.97
2019-05-19T05:03:31.895Z,15.00
2019-05-19T05:05:05.087Z,15.07
2019-05-19T05:07:50.214Z,14.99
2019-05-19T05:08:28.799Z,15.05
2019-05-19T05:09:50.175Z,15.05
2019-05-19T05:12:35.354Z,15.04
2019-05-19T05:13:02.134Z,15.07
2019-05-19T05:14:35.418Z,15.15
2019-05-19T05:17:20.443Z,15.15
2019-05-19T05:17:47.221Z,15.25
2019-05-19T05:19:20.406Z,15.30
2019-05-19T05:25:07.429Z,15.60
2019-05-19T05:26:40.621Z,15.63
2019-05-19T05:27:40.602Z,15.73
2019-05-19T05:29:52.570Z,15.98
2019-05-19T05:31:25.764Z,16.17
2019-05-19T05:32:25.744Z,16.37
2019-05-19T05:34:37.623Z,16.74
2019-05-19T05:37:22.643Z,16.83
2019-05-19T05:40:07.688Z,16.80
2019-05-19T05:42:52.753Z,16.84
2019-05-19T05:45:37.782Z,17.22
2019-05-19T05:48:22.863Z,17.46
2019-05-19T07:22:27.364Z,20.40
2019-05-19T07:23:28.794Z,20.49
2019-05-19T07:23:54.137Z,20.37
2019-05-19T07:24:54.112Z,20.58
2019-05-19T07:25:54.094Z,20.60
2019-05-19T07:26:54.078Z,20.59
2019-05-19T07:27:54.070Z,20.55
2019-05-19T07:28:54.053Z,20.64
2019-05-19T07:29:54.044Z,20.74
2019-05-19T07:30:54.028Z,20.66
2019-05-19T07:31:54.014Z,20.71
2019-05-19T07:32:54.005Z,20.46
2019-05-19T07:33:54.053Z,20.36
2019-05-19T07:34:53.975Z,20.42
2019-05-19T07:35:53.969Z,20.30
2019-05-19T07:36:53.953Z,20.21
2019-05-19T07:37:53.935Z,20.36
2019-05-19T07:38:53.918Z,20.36
2019-05-19T07:39:54.025Z,20.59
2019-05-19T07:40:53.893Z,20.73
2019-05-19T07:41:53.888Z,20.88
2019-05-19T07:42:53.865Z,20.86
2019-05-19T07:43:53.850Z,20.85
2019-05-19T07:44:53.837Z,20.82
2019-05-19T07:45:53.824Z,20.90
2019-05-19T07:46:53.810Z,21.07
2019-05-19T07:47:53.809Z,21.13
2019-05-19T07:48:53.794Z,21.22
2019-05-19T07:49:53.768Z,21.08
2019-05-19T07:50:53.755Z,21.05
2019-05-19T07:51:53.745Z,21.15
2019-05-19T07:52:53.782Z,21.04
2019-05-19T07:53:53.719Z,21.04
2019-05-19T07:54:53.717Z,21.13
2019-05-19T07:55:53.693Z,21.11
2019-05-19T07:56:53.674Z,21.14
2019-05-19T07:57:53.661Z,21.22
2019-05-19T07:58:53.649Z,21.20
2019-05-19T07:59:53.642Z,21.05
2019-05-19T08:00:53.620Z,21.15
2019-05-19T08:01:53.744Z,21.13
2019-05-19T08:02:53.593Z,21.25
2019-05-19T08:03:53.642Z,21.35
2019-05-19T08:04:53.569Z,21.44
2019-05-19T08:05:56.787Z,21.48
2019-05-19T08:06:53.553Z,21.19
2019-05-19T08:07:53.523Z,21.26
2019-05-19T08:08:53.519Z,21.20
2019-05-19T08:09:53.517Z,21.35
2019-05-19T08:10:53.487Z,21.35
2019-05-19T08:11:53.475Z,21.38
2019-05-19T08:12:53.460Z,21.45
2019-05-19T08:13:53.441Z,21.32
2019-05-19T08:14:53.427Z,21.37
2019-05-19T08:15:53.425Z,21.60
2019-05-19T08:16:53.408Z,21.68
2019-05-19T08:17:53.434Z,21.77
2019-05-19T08:18:53.376Z,21.77
2019-05-19T08:19:53.378Z,21.81
2019-05-19T08:20:53.346Z,21.94
2019-05-19T08:21:53.342Z,22.00
2019-05-19T08:22:53.372Z,22.12
2019-05-19T08:24:00.387Z,22.01
2019-05-19T08:24:53.295Z,22.16
2019-05-19T08:25:53.281Z,22.21
2019-05-19T08:26:53.284Z,21.96
2019-05-19T08:27:53.252Z,22.12
2019-05-19T08:28:53.265Z,22.22
2019-05-19T08:29:53.295Z,22.14
2019-05-19T08:30:53.213Z,22.18
2019-05-19T08:31:53.256Z,22.28
2019-05-19T08:32:53.196Z,22.33
2019-05-19T08:33:53.194Z,22.07
2019-05-19T08:34:53.160Z,21.92
2019-05-19T08:35:53.152Z,22.04
2019-05-19T08:36:53.145Z,22.23
2019-05-19T08:37:53.117Z,22.26
2019-05-19T08:38:53.100Z,22.12
2019-05-19T08:39:53.090Z,22.23
2019-05-19T08:40:53.164Z,22.28
2019-05-19T08:41:53.063Z,22.26
2019-05-19T08:42:53.047Z,22.25
2019-05-19T08:43:53.538Z,22.23
2019-05-19T08:44:53.023Z,22.33
2019-05-19T08:45:53.009Z,22.49
2019-05-19T08:46:53.006Z,22.51
2019-05-19T08:47:52.978Z,22.63
2019-05-19T08:48:53.022Z,22.51
2019-05-19T08:49:52.972Z,22.58
2019-05-19T08:50:52.938Z,22.53
2019-05-19T08:51:52.951Z,22.43
2019-05-19T08:52:52.941Z,22.37
2019-05-19T08:53:52.914Z,22.31
2019-05-19T08:54:52.883Z,22.55
2019-05-19T08:55:52.879Z,22.67
2019-05-19T08:56:52.870Z,22.70
2019-05-19T08:57:52.851Z,22.81
2019-05-19T08:58:52.838Z,22.84
2019-05-19T08:59:52.838Z,22.74
2019-05-19T09:00:52.812Z,22.83
2019-05-19T09:01:52.816Z,22.77
2019-05-19T09:02:52.775Z,22.77
2019-05-19T09:03:52.766Z,22.62
2019-05-19T09:04:52.748Z,22.58
2019-05-19T09:05:52.735Z,22.81
2019-05-19T09:06:52.774Z,22.98
2019-05-19T09:07:52.712Z,23.36
2019-05-19T09:08:52.754Z,23.76
2019-05-19T09:09:52.687Z,24.09
2019-05-19T09:10:52.671Z,24.25
2019-05-19T09:11:52.658Z,24.50
2019-05-19T09:12:52.643Z,24.56
2019-05-19T09:13:52.635Z,24.59
2019-05-19T09:14:52.627Z,24.62
2019-05-19T09:15:52.612Z,24.65
2019-05-19T09:16:52.589Z,24.88
2019-05-19T09:17:54.297Z,24.65
2019-05-19T09:18:52.570Z,24.63
2019-05-19T09:19:52.553Z,24.61
2019-05-19T09:20:52.548Z,24.43
2019-05-19T09:21:52.522Z,24.16
2019-05-19T09:22:52.519Z,24.22
2019-05-19T09:23:52.522Z,24.37
2019-05-19T09:24:52.492Z,24.50
2019-05-19T09:25:52.476Z,24.34
2019-05-19T09:26:52.467Z,24.40
2019-05-19T09:27:52.456Z,24.43
2019-05-19T09:28:52.436Z,24.40
2019-05-19T09:29:52.425Z,24.61
2019-05-19T09:30:52.437Z,24.55
2019-05-19T09:31:52.402Z,24.59
2019-05-19T09:32:52.390Z,24.62
2019-05-19T09:33:52.384Z,24.68
2019-05-19T09:34:52.368Z,24.61
2019-05-19T09:35:52.356Z,24.59
2019-05-19T09:36:52.360Z,24.53
2019-05-19T09:37:52.334Z,24.43
2019-05-19T09:38:52.492Z,24.82
2019-05-19T09:39:52.444Z,24.96
2019-05-19T09:40:52.305Z,25.25
2019-05-19T09:41:52.311Z,25.59
2019-05-19T09:42:52.289Z,25.51
2019-05-19T09:43:52.273Z,25.52
2019-05-19T09:44:52.271Z,25.55
2019-05-19T09:45:52.252Z,25.80
2019-05-19T09:46:52.250Z,25.80
2019-05-19T09:47:52.244Z,26.03
2019-05-19T09:48:52.224Z,26.30
2019-05-19T09:49:52.225Z,26.64
2019-05-19T09:50:52.204Z,26.86
2019-05-19T09:51:52.203Z,26.82
2019-05-19T09:52:52.194Z,26.64
2019-05-19T09:53:52.189Z,26.61
2019-05-19T09:54:52.177Z,26.71
2019-05-19T09:55:52.165Z,27.01
2019-05-19T09:56:52.157Z,26.63
2019-05-19T09:57:52.153Z,26.34
2019-05-19T09:58:52.138Z,26.66
2019-05-19T09:59:52.130Z,26.42
2019-05-19T10:00:52.125Z,26.37
2019-05-19T10:01:52.117Z,25.81
2019-05-19T10:02:52.161Z,25.34
2019-05-19T10:03:52.104Z,25.44
2019-05-19T10:04:52.097Z,25.55
2019-05-19T10:05:52.088Z,26.13
2019-05-19T10:06:52.115Z,26.34
2019-05-19T10:07:52.076Z,26.73
2019-05-19T10:08:52.074Z,26.82
2019-05-19T10:09:52.063Z,26.81
2019-05-19T10:10:52.062Z,26.70
2019-05-19T10:11:52.068Z,26.36
2019-05-19T10:12:52.044Z,26.19
2019-05-19T10:13:57.186Z,26.49
2019-05-19T10:16:56.559Z,25.39
2019-05-19T10:17:56.440Z,24.94
2019-05-19T10:18:56.420Z,24.88
2019-05-19T10:19:56.423Z,24.58
2019-05-19T10:20:56.409Z,24.66
2019-05-19T10:21:56.403Z,24.89
2019-05-19T10:22:56.396Z,24.94
2019-05-19T10:23:56.443Z,25.21
2019-05-19T10:25:18.167Z,25.66
2019-05-19T10:25:56.376Z,26.04
2019-05-19T10:26:56.382Z,25.95
2019-05-19T10:27:56.369Z,26.01
2019-05-19T10:28:56.368Z,26.41
2019-05-19T10:29:56.351Z,26.29
2019-05-19T10:30:59.434Z,26.16
2019-05-19T10:31:56.346Z,26.24
2019-05-19T10:32:58.703Z,26.19
2019-05-19T10:33:56.410Z,26.13
2019-05-19T10:34:56.334Z,26.16
2019-05-19T10:35:56.336Z,26.30
2019-05-19T10:36:56.319Z,26.52
2019-05-19T10:37:56.315Z,26.76
2019-05-19T10:38:56.351Z,27.26
2019-05-19T10:39:56.314Z,27.35
2019-05-19T10:40:56.298Z,27.05
2019-05-19T10:41:56.379Z,26.51
2019-05-19T10:42:56.285Z,26.23
2019-05-19T10:43:56.306Z,26.06
2019-05-19T10:44:56.280Z,25.95
2019-05-19T10:45:56.267Z,25.71
2019-05-19T10:46:56.269Z,25.73
2019-05-19T10:47:56.256Z,25.77
2019-05-19T10:48:56.262Z,25.85
2019-05-19T10:49:56.252Z,25.77
2019-05-19T10:50:56.238Z,25.73
2019-05-19T10:51:56.231Z,25.85
2019-05-19T10:52:56.228Z,26.29
2019-05-19T10:53:56.308Z,26.08
2019-05-19T10:54:56.213Z,26.04
2019-05-19T10:55:56.206Z,26.11
2019-05-19T10:56:56.232Z,26.74
2019-05-19T10:57:56.195Z,27.50
2019-05-19T10:58:56.189Z,28.04
2019-05-19T10:59:56.189Z,27.82
2019-05-19T11:00:59.609Z,27.94
2019-05-19T11:01:56.172Z,27.20
2019-05-19T11:02:56.214Z,27.10
2019-05-19T11:03:56.233Z,27.04
2019-05-19T11:04:56.159Z,26.81
2019-05-19T11:05:56.149Z,26.42
2019-05-19T11:06:56.144Z,26.48
2019-05-19T11:07:56.147Z,26.70
2019-05-19T11:08:56.134Z,26.89
2019-05-19T11:09:56.129Z,27.10
2019-05-19T11:10:56.130Z,27.53
2019-05-19T11:11:56.116Z,27.58
2019-05-19T11:12:56.128Z,27.82
2019-05-19T11:13:56.121Z,27.97
2019-05-19T11:14:56.105Z,27.60
2019-05-19T11:15:56.135Z,27.50
2019-05-19T11:16:56.118Z,27.66
2019-05-19T11:17:56.096Z,28.15
2019-05-19T11:18:56.089Z,28.18
2019-05-19T11:19:56.078Z,27.72
2019-05-19T11:20:56.072Z,27.40
2019-05-19T11:21:56.078Z,27.33
2019-05-19T11:22:56.153Z,26.85
2019-05-19T11:23:56.062Z,26.45
2019-05-19T11:24:56.059Z,26.34
2019-05-19T11:25:56.112Z,26.34
2019-05-19T11:26:56.042Z,26.36
2019-05-19T11:27:56.037Z,26.73
2019-05-19T11:28:56.038Z,27.25
2019-05-19T11:29:56.031Z,27.05
2019-05-19T11:30:56.020Z,26.73
2019-05-19T11:31:56.014Z,26.74
2019-05-19T11:32:56.012Z,27.07
2019-05-19T11:33:56.006Z,26.96
2019-05-19T11:34:56.007Z,26.97
2019-05-19T11:35:55.992Z,27.08
2019-05-19T11:36:55.987Z,27.01
2019-05-19T11:37:56.002Z,26.61
2019-05-19T11:38:55.976Z,25.86
2019-05-19T11:39:55.969Z,25.61
2019-05-19T11:40:55.963Z,25.68
2019-05-19T11:41:55.958Z,26.15
2019-05-19T11:42:55.949Z,26.42
2019-05-19T11:43:55.949Z,26.23
2019-05-19T11:44:55.939Z,26.51
2019-05-19T11:45:55.936Z,26.66
2019-05-19T11:46:55.925Z,26.88
2019-05-19T11:47:55.920Z,26.97
2019-05-19T11:48:55.911Z,27.04
2019-05-19T11:49:55.914Z,27.45
2019-05-19T11:50:55.898Z,27.50
2019-05-19T11:51:55.902Z,27.43
2019-05-19T11:52:55.883Z,26.70
2019-05-19T11:53:55.883Z,26.18
2019-05-19T11:54:55.866Z,26.03
2019-05-19T11:56:06.294Z,25.71
2019-05-19T11:56:55.856Z,25.48
2019-05-19T11:57:55.842Z,25.24
2019-05-19T11:58:55.848Z,25.29
2019-05-19T11:59:55.837Z,25.24
2019-05-19T12:00:55.817Z,25.25
2019-05-19T12:01:55.819Z,25.19
2019-05-19T12:02:55.801Z,25.24
2019-05-19T12:03:55.789Z,25.19
2019-05-19T12:04:55.790Z,25.06
2019-05-19T12:05:55.780Z,25.03
2019-05-19T12:06:55.767Z,25.09
2019-05-19T12:07:55.761Z,25.26
2019-05-19T12:08:55.755Z,25.14
2019-05-19T12:09:55.765Z,25.21
2019-05-19T12:10:55.737Z,24.96
2019-05-19T12:11:55.712Z,25.07
2019-05-19T12:12:55.753Z,25.21
2019-05-19T12:13:55.704Z,25.37
2019-05-19T12:14:55.686Z,25.56
2019-05-19T12:15:55.680Z,25.63
2019-05-19T12:16:55.686Z,25.66
2019-05-19T12:17:55.651Z,25.77
2019-05-19T12:18:57.615Z,25.67
2019-05-19T12:19:55.631Z,25.63
2019-05-19T12:20:55.629Z,25.77
2019-05-19T12:21:55.637Z,25.62
2019-05-19T12:22:55.670Z,25.76
2019-05-19T12:23:55.608Z,26.04
2019-05-19T12:24:55.583Z,26.29
2019-05-19T12:25:55.568Z,26.36
2019-05-19T12:26:55.565Z,26.39
2019-05-19T12:27:55.549Z,26.44
2019-05-19T12:28:55.543Z,26.36
2019-05-19T12:29:55.533Z,26.42
2019-05-19T12:30:55.523Z,26.39
2019-05-19T12:31:55.506Z,26.24
2019-05-19T12:32:59.066Z,26.06
2019-05-19T12:33:55.482Z,26.07
2019-05-19T12:34:55.486Z,26.04
2019-05-19T12:35:55.459Z,25.80
2019-05-19T12:36:55.512Z,25.33
2019-05-19T12:37:55.440Z,25.25
2019-05-19T12:38:55.434Z,25.26
2019-05-19T12:39:55.425Z,25.14
2019-05-19T12:40:55.419Z,25.37
2019-05-19T12:41:55.403Z,25.46
2019-05-19T12:42:55.384Z,25.52
2019-05-19T12:43:55.375Z,25.74
2019-05-19T12:44:55.363Z,26.03
2019-05-19T12:45:55.367Z,25.66
2019-05-19T12:46:55.359Z,25.55
2019-05-19T12:47:55.339Z,25.40
2019-05-19T12:48:55.327Z,25.44
2019-05-19T12:49:55.306Z,25.36
2019-05-19T12:50:55.296Z,25.31
2019-05-19T12:51:55.305Z,25.41
2019-05-19T12:52:55.279Z,25.51
2019-05-19T12:53:55.271Z,25.80
2019-05-19T12:54:55.278Z,26.18
2019-05-19T12:55:55.236Z,26.34
2019-05-19T12:56:55.224Z,26.29
2019-05-19T12:57:55.214Z,26.26
2019-05-19T12:58:55.202Z,26.13
2019-05-19T12:59:55.199Z,26.13
2019-05-19T13:00:55.191Z,26.16
2019-05-19T13:01:55.176Z,26.41
2019-05-19T13:02:55.157Z,26.68
2019-05-19T13:03:55.147Z,26.82
2019-05-19T13:05:04.697Z,26.81
2019-05-19T13:05:55.124Z,26.73
2019-05-19T13:06:55.119Z,26.68
2019-05-19T13:07:55.119Z,26.37
2019-05-19T13:08:55.095Z,26.27
2019-05-19T13:09:55.092Z,26.30
2019-05-19T13:10:55.090Z,26.18
2019-05-19T13:11:55.059Z,26.06
2019-05-19T13:12:55.052Z,25.80
2019-05-19T13:13:55.033Z,25.76
2019-05-19T13:14:55.023Z,25.73
2019-05-19T13:15:55.012Z,25.85
2019-05-19T13:16:55.009Z,25.63
2019-05-19T13:17:54.998Z,25.55
2019-05-19T13:18:54.975Z,25.49
2019-05-19T13:19:54.969Z,25.39
2019-05-19T13:20:54.959Z,25.04
2019-05-19T13:21:54.967Z,24.97
2019-05-19T13:22:54.939Z,24.82
2019-05-19T13:23:55.886Z,24.74
2019-05-19T13:24:54.909Z,24.71
2019-05-19T13:25:54.906Z,24.58
2019-05-19T13:26:56.878Z,24.55
2019-05-19T13:27:54.880Z,24.58
2019-05-19T13:28:54.859Z,24.61
2019-05-19T13:29:54.848Z,24.66
2019-05-19T13:30:54.836Z,24.77
2019-05-19T13:31:54.824Z,24.82
2019-05-19T13:32:54.818Z,24.85
2019-05-19T13:33:54.804Z,24.84
2019-05-19T13:34:54.808Z,24.86
2019-05-19T13:35:54.775Z,25.04
2019-05-19T13:36:54.779Z,25.03
2019-05-19T13:37:54.760Z,24.82
2019-05-19T13:38:54.742Z,24.71
2019-05-19T13:39:54.726Z,24.59
2019-05-19T13:40:54.721Z,24.63
2019-05-19T13:41:54.701Z,24.62
2019-05-19T13:42:54.692Z,24.78
2019-05-19T13:43:54.675Z,24.75
2019-05-19T13:44:54.665Z,24.85
2019-05-19T13:45:54.669Z,24.82
2019-05-19T13:46:54.639Z,24.82
2019-05-19T13:47:54.633Z,24.89
2019-05-19T13:48:54.617Z,24.88
2019-05-19T13:49:54.629Z,24.84
2019-05-19T13:50:54.596Z,24.84
2019-05-19T13:51:54.578Z,24.63
2019-05-19T13:52:54.576Z,24.58
2019-05-19T13:53:54.553Z,24.61
2019-05-19T13:54:54.540Z,24.68
2019-05-19T13:55:54.540Z,24.79
2019-05-19T13:56:54.524Z,24.93
2019-05-19T13:57:54.513Z,24.96
2019-05-19T13:58:54.490Z,24.86
2019-05-19T13:59:54.489Z,25.00
2019-05-19T14:00:54.467Z,24.92
2019-05-19T14:01:54.464Z,24.94
2019-05-19T14:02:54.440Z,24.81
2019-05-19T14:03:54.432Z,24.88
2019-05-19T14:04:54.425Z,24.77
2019-05-19T14:05:54.403Z,24.69
2019-05-19T14:06:54.394Z,24.66
2019-05-19T14:07:54.385Z,24.75
2019-05-19T14:08:54.380Z,24.79
2019-05-19T14:09:54.357Z,24.77
2019-05-19T14:10:54.345Z,24.66
2019-05-19T14:11:54.338Z,24.62
2019-05-19T14:12:54.325Z,24.66
2019-05-19T14:13:54.308Z,24.53
2019-05-19T14:14:54.292Z,24.43
2019-05-19T14:15:54.297Z,24.38
2019-05-19T14:16:54.271Z,24.34
2019-05-19T14:17:54.252Z,24.11
2019-05-19T14:18:54.245Z,23.82
2019-05-19T14:19:54.244Z,23.71
2019-05-19T14:20:54.222Z,23.58
2019-05-19T14:21:54.215Z,23.52
2019-05-19T14:22:54.197Z,23.37
2019-05-19T14:23:54.175Z,22.99
2019-05-19T14:24:54.171Z,22.23
2019-05-19T14:25:54.163Z,21.63
2019-05-19T14:26:54.139Z,20.80
2019-05-19T14:27:54.129Z,20.29
2019-05-19T14:28:54.118Z,20.10
2019-05-19T14:29:54.094Z,20.02
2019-05-19T14:30:54.082Z,20.08
2019-05-19T14:31:54.074Z,20.00
2019-05-19T14:32:54.054Z,19.94
2019-05-19T14:33:54.042Z,19.97
2019-05-19T14:34:54.033Z,19.99
2019-05-19T14:35:54.013Z,20.02
2019-05-19T14:36:54.014Z,20.07
2019-05-19T14:37:53.989Z,20.03
2019-05-19T14:38:53.969Z,19.94
2019-05-19T14:39:53.953Z,19.94
2019-05-19T14:42:22.059Z,19.97
2019-05-19T14:43:22.036Z,19.94
2019-05-19T14:44:22.010Z,19.93
2019-05-19T14:45:22.009Z,19.90
2019-05-19T14:46:21.990Z,19.93
2019-05-19T14:47:22.018Z,19.97
2019-05-19T14:48:21.955Z,19.93
2019-05-19T14:49:21.943Z,19.94
2019-05-19T14:50:21.922Z,19.94
2019-05-19T14:51:22.025Z,19.85
2019-05-19T14:52:21.892Z,19.94
2019-05-19T14:53:21.899Z,19.70
2019-05-19T14:54:21.862Z,19.67
2019-05-19T14:55:21.856Z,19.66
2019-05-19T14:56:21.836Z,19.72
2019-05-19T14:57:21.833Z,19.57
2019-05-19T14:58:21.806Z,19.53
2019-05-19T14:59:21.784Z,19.49
2019-05-19T15:00:21.775Z,19.44
2019-05-19T15:01:21.762Z,19.39
2019-05-19T15:02:21.750Z,19.44
2019-05-19T15:03:21.724Z,19.27
2019-05-19T15:04:21.715Z,19.34
2019-05-19T15:05:21.696Z,19.27
2019-05-19T15:06:21.684Z,19.19
2019-05-19T15:07:21.667Z,19.27
2019-05-19T15:08:21.653Z,19.34
2019-05-19T15:09:21.634Z,19.17
2019-05-19T15:10:21.625Z,19.11
2019-05-19T15:11:21.604Z,19.12
2019-05-19T15:12:21.626Z,19.19
2019-05-19T15:13:21.583Z,19.08
2019-05-19T15:14:21.552Z,19.17
2019-05-19T15:15:21.539Z,19.04
2019-05-19T15:16:21.532Z,19.04
2019-05-19T15:17:21.514Z,19.15
2019-05-19T15:18:21.500Z,19.23
2019-05-19T15:19:21.478Z,19.24
2019-05-19T15:20:21.467Z,19.16
2019-05-19T15:21:21.451Z,19.22
2019-05-19T15:22:21.429Z,19.19
2019-05-19T15:23:22.235Z,19.24
2019-05-19T15:24:21.406Z,19.27
2019-05-19T15:25:21.392Z,19.26
2019-05-19T15:26:21.367Z,19.09
2019-05-19T15:27:21.358Z,19.17
2019-05-19T15:28:21.340Z,19.22
2019-05-19T15:29:21.328Z,19.17
2019-05-19T15:30:21.332Z,19.15
2019-05-19T15:31:21.305Z,19.20
2019-05-19T15:32:21.281Z,19.20
2019-05-19T15:33:21.281Z,19.27
2019-05-19T15:34:21.242Z,19.24
2019-05-19T15:35:21.231Z,19.29
2019-05-19T15:36:21.222Z,19.27
2019-05-19T15:37:21.198Z,19.19
2019-05-19T15:38:21.189Z,19.19
2019-05-19T15:39:21.172Z,19.19
2019-05-19T15:40:21.155Z,19.19
2019-05-19T15:41:21.263Z,19.29
2019-05-19T15:42:21.121Z,19.26
2019-05-19T15:43:21.112Z,19.32
2019-05-19T15:44:21.098Z,19.30
2019-05-19T15:45:21.080Z,19.27
2019-05-19T15:46:21.062Z,19.44
2019-05-19T15:47:21.060Z,19.39
2019-05-19T15:48:21.041Z,19.52
2019-05-19T15:49:21.023Z,19.47
2019-05-19T15:51:38.634Z,19.48
2019-05-19T15:52:06.304Z,19.52
2019-05-19T15:53:05.403Z,19.56
2019-05-19T15:54:05.379Z,19.62
2019-05-19T15:55:05.357Z,19.64
2019-05-19T15:56:05.358Z,19.72
2019-05-19T15:57:05.359Z,19.71
2019-05-19T15:58:16.035Z,19.85
2019-05-19T15:59:05.312Z,19.89
2019-05-19T16:00:05.305Z,19.92
2019-05-19T16:01:05.269Z,19.96
2019-05-19T16:02:38.466Z,19.97
2019-05-19T16:03:05.244Z,20.02
2019-05-19T16:06:23.880Z,19.99
2019-05-19T16:06:50.721Z,20.04
2019-05-19T16:07:50.650Z,20.11
2019-05-19T16:08:53.847Z,20.00
2019-05-19T16:09:50.603Z,20.02
2019-05-19T16:10:50.590Z,20.00
2019-05-19T16:11:50.575Z,19.99
2019-05-19T16:12:50.566Z,20.04
2019-05-19T16:13:50.553Z,19.97
2019-05-19T16:14:50.556Z,19.92
2019-05-19T16:47:35.654Z,18.78
2019-05-19T16:49:08.853Z,18.82
2019-05-19T16:49:35.628Z,18.86
2019-05-19T16:50:35.601Z,19.00
2019-05-19T16:51:35.599Z,19.09
2019-05-19T16:52:35.595Z,19.27
2019-05-19T16:53:35.554Z,19.37
2019-05-19T16:54:35.549Z,19.42
2019-05-19T16:55:35.522Z,19.53
2019-05-19T16:56:35.515Z,19.49
2019-05-19T16:58:27.912Z,19.48
2019-05-19T16:59:08.692Z,19.55
2019-05-19T17:01:20.864Z,19.71
2019-05-19T17:02:54.051Z,19.66
2019-05-19T17:03:20.844Z,19.62
2019-05-19T17:04:20.837Z,19.72
2019-05-19T17:05:20.803Z,19.53
2019-05-19T17:06:20.790Z,19.48
2019-05-19T17:07:20.792Z,19.29
2019-05-19T17:10:06.149Z,19.26
2019-05-19T17:12:51.242Z,19.20
2019-05-19T17:15:36.345Z,19.29
2019-05-19T17:18:21.464Z,19.45
2019-05-19T17:21:06.439Z,19.49
2019-05-19T17:23:51.572Z,19.72
2019-05-19T17:26:36.774Z,19.78
2019-05-19T17:29:21.591Z,19.67
2019-05-19T17:32:06.646Z,19.55
2019-05-19T17:34:51.724Z,19.60
2019-05-19T17:37:36.806Z,19.59
2019-05-19T17:40:21.838Z,19.59
2019-05-19T18:11:11.093Z,19.42
2019-05-19T18:12:11.070Z,19.44
2019-05-19T18:13:11.064Z,19.48
2019-05-19T18:13:37.885Z,19.57
2019-05-19T18:16:56.237Z,19.27
2019-05-19T18:19:42.297Z,19.20
2019-05-19T18:23:51.392Z,19.22
2019-05-19T18:26:36.482Z,18.96
2019-05-19T18:29:30.948Z,19.08
2019-05-19T18:32:06.540Z,18.89
2019-05-19T18:34:51.574Z,18.86
2019-05-19T18:37:36.608Z,18.86
2019-05-19T18:40:21.780Z,18.89
2019-05-19T19:44:27.388Z,18.24
2019-05-19T19:45:54.290Z,18.21
2019-05-19T19:46:54.325Z,18.24
2019-05-19T19:47:21.038Z,18.18
2019-05-19T19:48:21.017Z,18.16
2019-05-19T19:49:21.014Z,18.16
2019-05-19T19:50:20.992Z,18.19
2019-05-19T19:51:20.977Z,18.13